Skip Navigation Links Skip Navigation Links

Current Weather

Rock Co, Janesville, Wis.

For information only: do not use for flight planning or navigation.
Latest weather
Observation time Tuesday, October 19, 2021 4:15 AM CDT
Local time Tuesday, October 19, 2021 4:40 AM CDT
Flight conditions Visual Meteorological Conditions
Winds
Wind speed calm
Visibility 10 mi.
Sky condition
Ceiling unlimited
Sky clear
Temperature 45°F
Dewpoint 43°F
Altimeter 30.07 in.Hg
Derived measurements
Relative humidity 93%
Wind chill 45°F
Density altitude -190 ft.
Remarks
Fully automated report.
Automated weather observing station with precipitation discriminator.
METAR KJVL 190915Z AUTO 00000KT 10SM CLR 07/06 A3007 RMK AO2

Settings

Location code

InnerDrive.Weather 4.0.6770.0 Release CLR 4.0.30319.42000
Copyright ©2018 Inner Drive Technology. All rights reserved. Portions Copyright ©1986-2018 David Braverman.

Find weather

Site navigation


Skip Navigation Links

Place info

Page info

PayPal - The safer, easier way to pay online!

Return home.

Copyright ©2021 Inner Drive Technology. Purveyors of fine, hand-crafted computer software. Page printed 2021-10-19T09:40:59 UTC.